createdAt,value
2018-11-07T00:00:45.466Z,17.20
2018-11-07T00:01:49.142Z,17.67
2018-11-07T00:02:52.871Z,16.73
2018-11-07T00:03:56.567Z,18.77
2018-11-07T00:05:00.161Z,19.67
2018-11-07T00:06:03.853Z,18.30
2018-11-07T00:07:07.733Z,16.57
2018-11-07T00:08:11.481Z,15.97
2018-11-07T00:09:14.894Z,16.10
2018-11-07T00:10:18.413Z,16.33
2018-11-07T00:11:21.982Z,13.93
2018-11-07T00:12:25.492Z,18.13
2018-11-07T00:13:29.078Z,16.50
2018-11-07T00:14:32.648Z,16.07
2018-11-07T00:15:36.223Z,18.90
2018-11-07T00:16:39.809Z,16.00
2018-11-07T00:17:43.545Z,17.27
2018-11-07T00:18:47.097Z,16.30
2018-11-07T00:19:50.749Z,14.50
2018-11-07T00:20:54.294Z,19.13
2018-11-07T00:21:57.916Z,15.83
2018-11-07T00:23:01.454Z,19.00
2018-11-07T00:24:05.054Z,15.93
2018-11-07T00:25:09.951Z,15.03
2018-11-07T00:26:13.592Z,20.10
2018-11-07T00:27:17.125Z,17.40
2018-11-07T00:28:20.670Z,15.87
2018-11-07T00:29:24.234Z,16.27
2018-11-07T00:30:27.787Z,13.13
2018-11-07T00:31:31.309Z,17.23
2018-11-07T00:32:34.871Z,15.70
2018-11-07T00:33:38.809Z,18.27
2018-11-07T00:34:42.347Z,14.20
2018-11-07T00:35:45.885Z,16.33
2018-11-07T00:36:49.485Z,16.70
2018-11-07T00:37:53.014Z,15.90
2018-11-07T00:38:56.672Z,17.00
2018-11-07T00:40:00.263Z,15.93
2018-11-07T00:41:03.793Z,17.63
2018-11-07T00:42:07.364Z,16.73
2018-11-07T00:43:11.076Z,16.53
2018-11-07T00:44:14.678Z,16.27
2018-11-07T00:45:18.216Z,16.17
2018-11-07T00:46:21.934Z,17.70
2018-11-07T00:47:25.628Z,17.77
2018-11-07T00:48:29.266Z,14.63
2018-11-07T00:49:32.943Z,17.23
2018-11-07T00:50:36.512Z,17.20
2018-11-07T00:51:40.130Z,17.80
2018-11-07T00:52:44.090Z,15.87
2018-11-07T00:53:47.661Z,17.50
2018-11-07T00:54:51.366Z,15.33
2018-11-07T00:55:54.922Z,19.40
2018-11-07T00:56:58.555Z,18.33
2018-11-07T00:58:02.319Z,16.50
2018-11-07T00:59:05.822Z,19.30
2018-11-07T01:00:12.484Z,19.23
2018-11-07T01:01:16.035Z,14.83
2018-11-07T01:02:19.636Z,19.40
2018-11-07T01:03:23.174Z,17.63
2018-11-07T01:04:26.866Z,16.33
2018-11-07T01:05:30.592Z,17.17
2018-11-07T01:06:34.573Z,19.60
2018-11-07T01:07:38.143Z,15.40
2018-11-07T01:08:41.738Z,18.17
2018-11-07T01:09:45.359Z,17.60
2018-11-07T01:10:49.006Z,14.70
2018-11-07T01:11:52.573Z,18.07
2018-11-07T01:12:56.074Z,16.63
2018-11-07T01:13:59.681Z,18.47
2018-11-07T01:15:03.597Z,17.53
2018-11-07T01:16:07.203Z,15.37
2018-11-07T01:17:11.119Z,17.27
2018-11-07T01:18:14.673Z,16.70
2018-11-07T01:19:18.237Z,15.57
2018-11-07T01:20:21.800Z,14.83
2018-11-07T01:21:25.337Z,17.87
2018-11-07T01:22:29.438Z,17.50
2018-11-07T01:23:33.024Z,16.63
2018-11-07T01:24:36.579Z,16.97
2018-11-07T01:25:40.332Z,16.00
2018-11-07T01:26:43.894Z,17.73
2018-11-07T01:27:47.491Z,14.93
2018-11-07T01:28:51.059Z,14.93
2018-11-07T01:29:54.576Z,17.90
2018-11-07T01:30:58.185Z,16.43
2018-11-07T01:32:01.754Z,16.00
2018-11-07T01:33:05.675Z,17.73
2018-11-07T01:34:09.146Z,17.13
2018-11-07T01:35:12.799Z,18.43
2018-11-07T01:36:16.541Z,16.67
2018-11-07T01:37:20.112Z,15.77
2018-11-07T01:38:23.776Z,17.37
2018-11-07T01:39:27.297Z,14.57
2018-11-07T01:40:30.871Z,15.67
2018-11-07T01:41:34.398Z,13.47
2018-11-07T01:42:37.931Z,16.67
2018-11-07T01:43:41.495Z,13.37
2018-11-07T01:44:44.966Z,14.67
2018-11-07T01:45:48.529Z,15.87
2018-11-07T01:46:52.018Z,17.07
2018-11-07T01:47:55.542Z,16.87
2018-11-07T01:48:59.281Z,14.77
2018-11-07T01:50:02.908Z,16.17
2018-11-07T01:51:06.972Z,15.33
2018-11-07T01:52:10.526Z,15.40
2018-11-07T01:53:14.058Z,13.40
2018-11-07T01:54:17.581Z,13.57
2018-11-07T01:55:21.122Z,15.97
2018-11-07T01:56:24.648Z,14.77
2018-11-07T01:57:28.263Z,14.83
2018-11-07T01:58:31.841Z,15.77
2018-11-07T01:59:35.466Z,14.87
2018-11-07T02:00:38.993Z,14.57
2018-11-07T02:01:42.526Z,13.63
2018-11-07T02:04:02.863Z,16.40
2018-11-07T02:05:07.059Z,14.93
2018-11-07T02:06:10.686Z,14.63
2018-11-07T02:07:14.178Z,13.70
2018-11-07T02:08:20.445Z,16.83
2018-11-07T02:09:23.960Z,19.13
2018-11-07T02:10:27.621Z,16.20
2018-11-07T02:11:31.698Z,17.43
2018-11-07T02:12:35.174Z,15.93
2018-11-07T02:13:40.242Z,15.90
2018-11-07T02:14:43.738Z,13.83
2018-11-07T02:15:47.201Z,17.03
2018-11-07T02:16:50.812Z,18.43
2018-11-07T02:17:54.354Z,16.10
2018-11-07T02:18:58.024Z,16.73
2018-11-07T02:20:02.196Z,17.67
2018-11-07T02:21:05.676Z,18.80
2018-11-07T02:22:09.176Z,16.87
2018-11-07T02:23:12.867Z,16.43
2018-11-07T02:24:16.362Z,15.73
2018-11-07T02:25:19.831Z,15.93
2018-11-07T02:26:23.341Z,18.40
2018-11-07T02:27:27.374Z,16.37
2018-11-07T02:28:30.953Z,15.90
2018-11-07T02:29:34.433Z,18.23
2018-11-07T02:30:37.928Z,19.40
2018-11-07T02:31:42.764Z,16.33
2018-11-07T02:32:46.221Z,17.23
2018-11-07T02:33:49.740Z,15.53
2018-11-07T02:34:53.177Z,16.00
2018-11-07T02:35:56.671Z,17.63
2018-11-07T02:37:00.516Z,19.50
2018-11-07T02:38:04.174Z,18.90
2018-11-07T02:39:10.402Z,16.53
2018-11-07T02:40:13.902Z,18.20
2018-11-07T02:41:17.816Z,18.83
2018-11-07T02:42:21.254Z,15.93
2018-11-07T02:43:24.738Z,19.73
2018-11-07T02:44:28.787Z,19.43
2018-11-07T02:45:32.251Z,19.97
2018-11-07T02:46:35.895Z,18.20
2018-11-07T02:47:39.792Z,19.97
2018-11-07T02:48:43.333Z,17.73
2018-11-07T02:49:46.871Z,17.93
2018-11-07T02:50:50.843Z,19.10
2018-11-07T02:51:54.326Z,18.03
2018-11-07T02:52:57.779Z,16.23
2018-11-07T02:54:02.028Z,18.23
2018-11-07T02:55:05.593Z,16.93
2018-11-07T02:56:09.070Z,19.17
2018-11-07T02:57:12.588Z,19.27
2018-11-07T02:58:16.829Z,20.37
2018-11-07T02:59:20.425Z,18.67
2018-11-07T03:00:23.906Z,17.97
2018-11-07T03:01:28.509Z,15.70
2018-11-07T03:02:31.988Z,17.17
2018-11-07T03:03:35.420Z,17.30
2018-11-07T03:04:38.967Z,20.63
2018-11-07T03:05:42.433Z,17.17
2018-11-07T03:06:45.886Z,15.03
2018-11-07T03:07:49.857Z,15.90
2018-11-07T03:08:53.440Z,18.43
2018-11-07T03:09:56.937Z,17.43
2018-11-07T03:11:01.665Z,17.20
2018-11-07T03:12:05.736Z,18.37
2018-11-07T03:13:09.191Z,19.33
2018-11-07T03:14:12.691Z,16.87
2018-11-07T03:15:16.180Z,18.10
2018-11-07T03:16:19.682Z,18.30
2018-11-07T03:17:23.125Z,16.70
2018-11-07T03:18:26.587Z,17.77
2018-11-07T03:19:30.262Z,17.47
2018-11-07T03:20:33.950Z,14.13
2018-11-07T03:21:37.429Z,17.13
2018-11-07T03:22:41.345Z,16.70
2018-11-07T03:23:44.897Z,16.67
2018-11-07T03:24:48.355Z,18.90
2018-11-07T03:25:51.978Z,17.07
2018-11-07T03:26:55.540Z,18.23
2018-11-07T03:27:59.019Z,20.00
2018-11-07T03:29:03.037Z,17.77
2018-11-07T03:30:07.472Z,16.63
2018-11-07T03:31:11.673Z,18.67
2018-11-07T03:32:15.177Z,19.23
2018-11-07T03:33:18.691Z,23.13
2018-11-07T03:34:22.203Z,16.67
2018-11-07T03:35:26.708Z,17.67
2018-11-07T03:36:30.142Z,19.77
2018-11-07T03:37:33.653Z,21.30
2018-11-07T03:38:37.106Z,18.47
2018-11-07T03:39:40.677Z,18.40
2018-11-07T03:40:44.114Z,17.10
2018-11-07T03:41:47.806Z,17.33
2018-11-07T03:42:51.296Z,17.30
2018-11-07T03:43:55.603Z,17.77
2018-11-07T03:44:59.052Z,16.57
2018-11-07T03:46:02.610Z,16.50
2018-11-07T03:47:06.176Z,17.77
2018-11-07T03:48:10.117Z,20.17
2018-11-07T03:49:13.609Z,18.97
2018-11-07T03:50:17.077Z,15.37
2018-11-07T03:51:20.627Z,18.00
2018-11-07T03:52:24.117Z,16.83
2018-11-07T03:53:27.892Z,18.13
2018-11-07T03:54:31.559Z,17.70
2018-11-07T03:55:35.211Z,15.97
2018-11-07T03:56:38.815Z,18.27
2018-11-07T03:57:42.358Z,18.13
2018-11-07T03:58:45.800Z,18.67
2018-11-07T03:59:49.406Z,17.10
2018-11-07T04:00:52.886Z,17.13
2018-11-07T04:01:56.601Z,16.23
2018-11-07T04:03:00.098Z,16.57
2018-11-07T04:04:03.632Z,21.80
2018-11-07T04:05:08.673Z,19.30
2018-11-07T04:06:12.914Z,17.00
2018-11-07T04:07:16.372Z,20.47
2018-11-07T04:08:19.815Z,17.27
2018-11-07T04:09:23.276Z,20.37
2018-11-07T04:10:26.916Z,18.77
2018-11-07T04:11:30.641Z,19.63
2018-11-07T04:12:34.085Z,17.90
2018-11-07T04:13:37.587Z,20.53
2018-11-07T04:14:41.140Z,18.17
2018-11-07T04:15:44.699Z,16.67
2018-11-07T04:16:48.207Z,18.53
2018-11-07T04:17:51.698Z,17.10
2018-11-07T04:18:55.317Z,19.47
2018-11-07T04:19:58.869Z,16.37
2018-11-07T04:21:02.433Z,18.33
2018-11-07T04:22:06.683Z,16.80
2018-11-07T04:23:10.145Z,15.10
2018-11-07T04:24:13.658Z,17.03
2018-11-07T04:25:17.106Z,17.00
2018-11-07T04:26:20.574Z,16.20
2018-11-07T04:27:24.023Z,15.30
2018-11-07T04:28:27.538Z,16.50
2018-11-07T04:29:32.042Z,18.37
2018-11-07T04:30:35.525Z,17.37
2018-11-07T04:31:39.192Z,18.33
2018-11-07T04:32:43.137Z,18.43
2018-11-07T04:33:47.293Z,14.93
2018-11-07T04:34:50.788Z,19.73
2018-11-07T04:35:54.698Z,15.97
2018-11-07T04:36:58.808Z,16.57
2018-11-07T04:38:02.321Z,17.77
2018-11-07T04:39:09.049Z,19.07
2018-11-07T04:40:13.454Z,15.47
2018-11-07T04:41:16.900Z,16.63
2018-11-07T04:42:20.649Z,17.90
2018-11-07T04:43:24.125Z,18.90
2018-11-07T04:44:27.632Z,14.70
2018-11-07T04:45:31.095Z,15.13
2018-11-07T04:46:34.531Z,14.20
2018-11-07T04:47:37.971Z,15.60
2018-11-07T04:48:41.689Z,15.73
2018-11-07T04:49:45.230Z,14.10
2018-11-07T04:50:48.677Z,14.80
2018-11-07T04:51:52.127Z,14.53
2018-11-07T04:52:55.586Z,13.77
2018-11-07T04:53:59.162Z,14.37
2018-11-07T04:55:02.684Z,14.97
2018-11-07T04:56:07.447Z,13.27
2018-11-07T04:57:11.085Z,14.27
2018-11-07T04:58:14.592Z,14.03
2018-11-07T04:59:19.172Z,14.43
2018-11-07T05:00:22.866Z,13.90
2018-11-07T05:01:26.277Z,12.77
2018-11-07T05:02:29.739Z,13.03
2018-11-07T05:03:33.360Z,11.67
2018-11-07T05:04:37.211Z,12.83
2018-11-07T05:05:41.345Z,13.90
2018-11-07T05:06:44.802Z,12.70
2018-11-07T05:07:48.320Z,13.87
2018-11-07T05:08:51.703Z,13.43
2018-11-07T05:09:55.355Z,13.20
2018-11-07T05:10:58.804Z,11.60
2018-11-07T05:12:02.318Z,14.50
2018-11-07T05:13:05.817Z,14.17
2018-11-07T05:14:09.337Z,13.20
2018-11-07T05:15:12.841Z,10.87
2018-11-07T05:16:16.510Z,12.40
2018-11-07T05:17:19.993Z,15.43
2018-11-07T05:18:23.567Z,11.57
2018-11-07T05:19:27.031Z,12.50
2018-11-07T05:20:30.531Z,15.03
2018-11-07T05:21:34.039Z,12.60
2018-11-07T05:22:37.588Z,11.93
2018-11-07T05:23:41.040Z,13.77
2018-11-07T05:24:44.488Z,14.63
2018-11-07T05:25:48.749Z,17.00
2018-11-07T05:26:52.347Z,13.40
2018-11-07T05:27:56.397Z,13.23
2018-11-07T05:28:59.848Z,14.50
2018-11-07T05:30:03.564Z,12.93
2018-11-07T05:31:07.196Z,12.27
2018-11-07T05:32:11.217Z,13.50
2018-11-07T05:33:14.799Z,12.23
2018-11-07T05:34:19.307Z,12.87
2018-11-07T05:35:22.870Z,14.17
2018-11-07T05:36:27.050Z,14.57
2018-11-07T05:37:30.558Z,12.43
2018-11-07T05:38:34.758Z,14.17
2018-11-07T05:39:38.954Z,12.97
2018-11-07T05:40:42.397Z,13.67
2018-11-07T05:41:46.942Z,13.60
2018-11-07T05:42:50.911Z,17.40
2018-11-07T05:43:55.302Z,16.07
2018-11-07T05:44:58.815Z,13.60
2018-11-07T05:46:02.442Z,14.67
2018-11-07T05:47:06.834Z,14.80
2018-11-07T05:48:10.346Z,14.33
2018-11-07T05:49:14.028Z,13.37
2018-11-07T05:50:17.438Z,16.50
2018-11-07T05:51:20.902Z,11.77
2018-11-07T05:52:24.374Z,13.97
2018-11-07T05:53:27.852Z,13.80
2018-11-07T05:54:31.414Z,12.50
2018-11-07T05:55:34.910Z,17.33
2018-11-07T05:56:38.426Z,15.00
2018-11-07T05:57:42.658Z,13.20
2018-11-07T05:58:46.704Z,12.57
2018-11-07T05:59:54.195Z,11.80
2018-11-07T06:00:58.051Z,14.60
2018-11-07T06:02:02.776Z,14.07
2018-11-07T06:03:07.596Z,12.37
2018-11-07T06:04:12.143Z,12.20
2018-11-07T06:05:16.255Z,12.47
2018-11-07T06:06:20.202Z,12.30
2018-11-07T06:07:24.908Z,12.10
2018-11-07T06:08:29.046Z,14.17
2018-11-07T06:09:33.134Z,12.60
2018-11-07T06:10:37.441Z,14.23
2018-11-07T06:11:41.409Z,12.33
2018-11-07T06:12:45.729Z,12.87
2018-11-07T06:13:50.397Z,15.47
2018-11-07T06:14:54.599Z,14.43
2018-11-07T06:15:59.690Z,12.93
2018-11-07T06:17:04.515Z,11.97
2018-11-07T06:18:08.738Z,16.00
2018-11-07T06:19:12.879Z,13.07
2018-11-07T06:20:17.848Z,16.50
2018-11-07T06:21:21.863Z,11.77
2018-11-07T06:22:25.927Z,14.50
2018-11-07T06:23:30.084Z,11.03
2018-11-07T06:24:34.145Z,12.43
2018-11-07T06:25:38.412Z,12.47
2018-11-07T06:26:42.595Z,13.73
2018-11-07T06:27:46.633Z,13.83
2018-11-07T06:28:50.707Z,12.47
2018-11-07T06:29:54.702Z,13.73
2018-11-07T06:30:59.176Z,14.43
2018-11-07T06:32:03.572Z,12.43
2018-11-07T06:33:07.963Z,11.57
2018-11-07T06:34:12.320Z,11.23
2018-11-07T06:35:16.505Z,11.80
2018-11-07T06:36:20.760Z,11.80
2018-11-07T06:37:24.763Z,13.47
2018-11-07T06:38:28.868Z,12.23
2018-11-07T06:39:33.751Z,9.97
2018-11-07T06:40:37.819Z,13.10
2018-11-07T06:41:41.993Z,12.37
2018-11-07T06:42:46.672Z,12.40
2018-11-07T06:43:51.645Z,12.80
2018-11-07T06:44:55.914Z,11.60
2018-11-07T06:46:00.606Z,11.57
2018-11-07T06:47:05.759Z,13.70
2018-11-07T06:48:09.878Z,11.50
2018-11-07T06:49:15.276Z,10.87
2018-11-07T06:50:19.053Z,10.97
2018-11-07T06:51:22.692Z,12.07
2018-11-07T06:52:26.381Z,11.83
2018-11-07T06:53:30.038Z,12.13
2018-11-07T06:54:33.667Z,12.77
2018-11-07T06:55:37.598Z,12.03
2018-11-07T06:56:41.480Z,11.73
2018-11-07T06:57:45.292Z,12.27
2018-11-07T06:58:49.193Z,11.53
2018-11-07T06:59:52.930Z,10.17
2018-11-07T07:00:56.681Z,9.70
2018-11-07T07:02:00.544Z,11.20
2018-11-07T07:03:05.354Z,12.10
2018-11-07T07:04:09.061Z,10.57
2018-11-07T07:05:13.445Z,11.87
2018-11-07T07:06:17.160Z,10.27
2018-11-07T07:07:20.902Z,11.17
2018-11-07T07:08:24.650Z,12.53
2018-11-07T07:09:28.365Z,10.77
2018-11-07T07:10:32.053Z,17.73
2018-11-07T07:11:35.728Z,14.97
2018-11-07T07:12:39.490Z,12.87
2018-11-07T07:13:43.768Z,11.70
2018-11-07T07:14:47.478Z,17.50
2018-11-07T07:15:51.171Z,13.83
2018-11-07T07:16:54.873Z,15.93
2018-11-07T07:17:58.611Z,12.73
2018-11-07T07:19:02.329Z,12.27
2018-11-07T07:20:12.980Z,13.97
2018-11-07T07:21:16.639Z,10.33
2018-11-07T07:22:20.314Z,11.07
2018-11-07T07:23:24.045Z,11.70
2018-11-07T07:24:27.744Z,10.07
2018-11-07T07:25:31.576Z,9.40
2018-11-07T07:26:35.283Z,9.43
2018-11-07T07:27:39.119Z,10.23
2018-11-07T07:28:42.901Z,11.67
2018-11-07T07:29:47.182Z,11.03
2018-11-07T07:30:50.874Z,10.10
2018-11-07T07:31:54.521Z,10.30
2018-11-07T07:32:58.264Z,9.83
2018-11-07T07:34:02.650Z,11.17
2018-11-07T07:35:06.656Z,9.77
2018-11-07T07:36:10.576Z,9.90
2018-11-07T07:37:14.395Z,8.77
2018-11-07T07:38:18.164Z,12.00
2018-11-07T07:39:21.867Z,11.43
2018-11-07T07:40:25.520Z,12.00
2018-11-07T07:41:29.229Z,12.67
2018-11-07T07:42:32.878Z,9.50
2018-11-07T07:43:36.544Z,10.07
2018-11-07T07:44:40.132Z,8.77
2018-11-07T07:45:43.950Z,10.07
2018-11-07T07:46:47.507Z,7.67
2018-11-07T07:47:51.241Z,9.47
2018-11-07T07:48:54.900Z,10.23
2018-11-07T07:49:58.509Z,8.80
2018-11-07T07:51:02.214Z,9.07
2018-11-07T07:52:05.985Z,9.20
2018-11-07T07:53:10.037Z,8.93
2018-11-07T07:54:13.793Z,8.90
2018-11-07T07:55:17.467Z,8.93
2018-11-07T07:56:21.083Z,8.30
2018-11-07T07:57:24.772Z,7.80
2018-11-07T07:58:28.560Z,8.43
2018-11-07T07:59:32.210Z,9.20
2018-11-07T08:00:35.898Z,8.63
2018-11-07T08:01:39.543Z,6.50
2018-11-07T08:02:46.275Z,10.30
2018-11-07T08:03:49.930Z,8.63
2018-11-07T08:04:53.498Z,7.20
2018-11-07T08:05:57.183Z,9.13
2018-11-07T08:07:00.951Z,9.43
2018-11-07T08:08:04.750Z,7.73
2018-11-07T08:09:11.742Z,8.03
2018-11-07T08:10:16.712Z,6.17
2018-11-07T08:11:20.299Z,5.90
2018-11-07T08:12:24.318Z,6.40
2018-11-07T08:13:27.988Z,7.63
2018-11-07T08:14:31.653Z,6.83
2018-11-07T08:15:35.261Z,6.83
2018-11-07T08:16:39.099Z,7.33
2018-11-07T08:17:43.595Z,8.57
2018-11-07T08:18:47.233Z,8.10
2018-11-07T08:19:50.972Z,6.60
2018-11-07T08:20:54.670Z,7.62
2018-11-07T08:21:58.382Z,6.47
2018-11-07T08:23:02.041Z,6.92
2018-11-07T08:24:05.749Z,6.28
2018-11-07T08:25:09.633Z,5.97
2018-11-07T08:26:13.575Z,7.85
2018-11-07T08:27:17.253Z,8.45
2018-11-07T08:28:20.984Z,4.90
2018-11-07T08:29:24.626Z,5.30
2018-11-07T08:30:28.316Z,6.28
2018-11-07T08:31:32.648Z,5.40
2018-11-07T08:32:36.343Z,5.08
2018-11-07T08:33:40.000Z,6.40
2018-11-07T08:34:43.696Z,6.75
2018-11-07T08:35:47.439Z,7.55
2018-11-07T08:36:51.101Z,5.03
2018-11-07T08:37:54.839Z,6.58
2018-11-07T08:38:58.533Z,5.35
2018-11-07T08:40:02.572Z,4.12
2018-11-07T08:41:06.299Z,6.03
2018-11-07T08:42:10.103Z,6.67
2018-11-07T08:43:14.243Z,5.40
2018-11-07T08:44:17.899Z,3.85
2018-11-07T08:45:21.642Z,6.42
2018-11-07T08:46:25.340Z,3.75
2018-11-07T08:47:29.017Z,4.87
2018-11-07T08:48:32.719Z,5.45
2018-11-07T08:49:36.361Z,5.20
2018-11-07T08:50:40.085Z,5.12
2018-11-07T08:51:43.920Z,4.37
2018-11-07T08:52:48.157Z,4.67
2018-11-07T08:53:51.838Z,3.90
2018-11-07T08:54:55.540Z,4.15
2018-11-07T08:55:59.177Z,4.62
2018-11-07T08:57:03.586Z,4.30
2018-11-07T08:58:07.255Z,3.90
2018-11-07T08:59:11.303Z,5.05
2018-11-07T09:00:21.711Z,5.08
2018-11-07T09:01:25.533Z,5.40
2018-11-07T09:02:29.124Z,4.72
2018-11-07T09:03:32.819Z,3.75
2018-11-07T09:04:36.520Z,4.80
2018-11-07T09:05:40.115Z,3.20
2018-11-07T09:06:43.902Z,3.92
2018-11-07T09:07:48.168Z,3.62
2018-11-07T09:08:51.884Z,5.65
2018-11-07T09:09:55.565Z,5.45
2018-11-07T09:10:59.219Z,4.62
2018-11-07T09:12:03.247Z,8.33
2018-11-07T09:13:06.934Z,6.15
2018-11-07T09:14:10.754Z,4.65
2018-11-07T09:15:17.398Z,3.83
2018-11-07T09:16:21.060Z,5.15
2018-11-07T09:17:24.762Z,4.67
2018-11-07T09:18:28.488Z,3.72
2018-11-07T09:19:32.167Z,6.30
2018-11-07T09:20:35.875Z,5.45
2018-11-07T09:21:40.118Z,5.30
2018-11-07T09:22:43.753Z,4.12
2018-11-07T09:23:47.450Z,3.15
2018-11-07T09:24:51.177Z,4.50
2018-11-07T09:25:54.883Z,3.42
2018-11-07T09:26:58.592Z,6.80
2018-11-07T09:28:02.294Z,4.87
2018-11-07T09:29:06.310Z,4.62
2018-11-07T09:30:13.919Z,3.35
2018-11-07T09:31:17.628Z,5.97
2018-11-07T09:32:21.300Z,5.20
2018-11-07T09:33:25.035Z,5.58
2018-11-07T09:34:28.995Z,4.37
2018-11-07T09:35:32.686Z,4.87
2018-11-07T09:36:36.397Z,6.05
2018-11-07T09:37:40.230Z,4.00
2018-11-07T09:38:43.954Z,4.42
2018-11-07T09:39:47.705Z,4.35
2018-11-07T09:40:51.371Z,3.92
2018-11-07T09:41:55.085Z,3.65
2018-11-07T09:42:58.807Z,4.60
2018-11-07T09:44:02.671Z,3.37
2018-11-07T09:45:07.861Z,4.78
2018-11-07T09:46:11.804Z,3.87
2018-11-07T09:47:16.731Z,3.72
2018-11-07T09:48:20.528Z,4.75
2018-11-07T09:49:24.042Z,3.30
2018-11-07T09:50:27.725Z,3.40
2018-11-07T09:51:31.649Z,4.15
2018-11-07T09:52:35.604Z,3.00
2018-11-07T09:53:39.478Z,3.60
2018-11-07T09:54:43.231Z,2.77
2018-11-07T09:55:47.028Z,3.92
2018-11-07T09:56:50.971Z,4.62
2018-11-07T09:57:54.664Z,3.45
2018-11-07T09:58:58.397Z,5.08
2018-11-07T10:00:02.085Z,3.90
2018-11-07T10:01:06.178Z,3.55
2018-11-07T10:02:10.145Z,4.37
2018-11-07T10:03:14.601Z,4.40
2018-11-07T10:04:18.324Z,5.25
2018-11-07T10:05:22.284Z,2.45
2018-11-07T10:06:26.076Z,3.80
2018-11-07T10:07:29.789Z,2.72
2018-11-07T10:08:33.492Z,4.67
2018-11-07T10:09:37.225Z,3.08
2018-11-07T10:10:40.893Z,3.22
2018-11-07T10:11:44.581Z,3.12
2018-11-07T10:12:48.365Z,3.20
2018-11-07T10:13:52.439Z,3.95
2018-11-07T10:14:56.142Z,4.05
2018-11-07T10:15:59.883Z,2.80
2018-11-07T10:17:03.588Z,4.12
2018-11-07T10:18:07.500Z,3.35
2018-11-07T10:19:11.353Z,3.72
2018-11-07T10:20:18.278Z,3.35
2018-11-07T10:21:21.954Z,4.08
2018-11-07T10:22:25.698Z,2.95
2018-11-07T10:23:29.432Z,3.22
2018-11-07T10:24:33.185Z,4.53
2018-11-07T10:25:36.893Z,3.67
2018-11-07T10:26:40.725Z,2.58
2018-11-07T10:27:44.566Z,2.20
2018-11-07T10:28:48.159Z,3.35
2018-11-07T10:29:52.092Z,3.02
2018-11-07T10:30:55.439Z,1.92
2018-11-07T10:31:59.119Z,4.55
2018-11-07T10:33:02.815Z,2.42
2018-11-07T10:34:07.323Z,3.22
2018-11-07T10:35:11.468Z,4.28
2018-11-07T10:36:15.180Z,3.85
2018-11-07T10:37:18.944Z,3.35
2018-11-07T10:38:22.880Z,3.00
2018-11-07T10:39:26.530Z,4.45
2018-11-07T10:40:30.195Z,3.22
2018-11-07T10:41:33.920Z,2.83
2018-11-07T10:42:37.592Z,2.50
2018-11-07T10:43:42.004Z,3.70
2018-11-07T10:44:45.706Z,2.87
2018-11-07T10:45:49.388Z,2.98
2018-11-07T10:46:53.051Z,1.70
2018-11-07T10:47:56.785Z,2.87
2018-11-07T10:49:00.488Z,2.85
2018-11-07T10:50:04.715Z,2.15
2018-11-07T10:51:08.411Z,1.67
2018-11-07T10:52:13.223Z,2.45
2018-11-07T10:53:17.096Z,3.15
2018-11-07T10:54:20.794Z,2.47
2018-11-07T10:55:24.479Z,1.70
2018-11-07T10:56:28.224Z,4.20
2018-11-07T10:57:31.838Z,2.67
2018-11-07T10:58:35.657Z,2.35
2018-11-07T10:59:39.322Z,2.08
2018-11-07T11:00:48.155Z,3.80
2018-11-07T11:01:57.006Z,1.65
2018-11-07T11:03:07.688Z,1.80
2018-11-07T11:04:11.514Z,2.27
2018-11-07T11:05:17.151Z,1.40
2018-11-07T11:06:20.749Z,2.65
2018-11-07T11:07:24.554Z,2.00
2018-11-07T11:08:28.410Z,3.05
2018-11-07T11:09:32.131Z,1.98
2018-11-07T11:10:35.851Z,1.40
2018-11-07T11:11:39.567Z,1.80
2018-11-07T11:12:44.338Z,2.45
2018-11-07T11:13:48.022Z,3.75
2018-11-07T11:14:51.730Z,2.15
2018-11-07T11:15:55.497Z,1.75
2018-11-07T11:16:59.305Z,3.05
2018-11-07T11:18:03.045Z,2.92
2018-11-07T11:19:07.023Z,2.42
2018-11-07T11:20:12.833Z,1.47
2018-11-07T11:21:17.829Z,1.22
2018-11-07T11:22:21.457Z,3.20
2018-11-07T11:23:25.138Z,2.15
2018-11-07T11:24:28.823Z,2.15
2018-11-07T11:25:32.516Z,1.50
2018-11-07T11:26:36.170Z,3.15
2018-11-07T11:27:39.992Z,1.77
2018-11-07T11:28:43.710Z,1.75
2018-11-07T11:29:47.521Z,2.08
2018-11-07T11:30:51.250Z,3.50
2018-11-07T11:31:55.012Z,2.08
2018-11-07T11:32:58.703Z,1.92
2018-11-07T11:34:02.525Z,1.42
2018-11-07T11:35:07.377Z,0.85
2018-11-07T11:36:11.331Z,1.25
2018-11-07T11:37:15.786Z,1.67
2018-11-07T11:38:19.576Z,1.98
2018-11-07T11:39:23.321Z,1.55
2018-11-07T11:40:27.115Z,1.92
2018-11-07T11:41:30.781Z,1.87
2018-11-07T11:42:34.616Z,2.25
2018-11-07T11:43:38.330Z,1.17
2018-11-07T11:44:42.005Z,4.42
2018-11-07T11:45:45.706Z,2.45
2018-11-07T11:46:49.439Z,2.10
2018-11-07T11:47:53.169Z,2.75
2018-11-07T11:48:57.034Z,2.33
2018-11-07T11:50:00.649Z,2.50
2018-11-07T11:51:04.872Z,2.87
2018-11-07T11:52:09.018Z,1.15
2018-11-07T11:53:12.957Z,0.88
2018-11-07T11:54:16.669Z,2.95
2018-11-07T11:55:20.970Z,1.90
2018-11-07T11:56:24.731Z,1.05
2018-11-07T11:57:28.593Z,1.67
2018-11-07T11:58:32.289Z,1.05
2018-11-07T11:59:36.263Z,0.60
2018-11-07T12:00:39.734Z,0.82
2018-11-07T12:01:43.532Z,1.92
2018-11-07T12:02:47.946Z,2.62
2018-11-07T12:03:51.918Z,1.00
2018-11-07T12:04:56.155Z,1.82
2018-11-07T12:06:00.391Z,1.82
2018-11-07T12:07:04.612Z,1.57
2018-11-07T12:08:09.612Z,1.25
2018-11-07T12:09:13.764Z,2.15
2018-11-07T12:10:21.988Z,2.08
2018-11-07T12:11:26.104Z,3.52
2018-11-07T12:12:30.171Z,1.90
2018-11-07T12:13:34.372Z,1.47
2018-11-07T12:14:38.587Z,3.37
2018-11-07T12:15:42.987Z,1.72
2018-11-07T12:16:47.849Z,1.50
2018-11-07T12:17:52.231Z,1.85
2018-11-07T12:18:56.471Z,1.30
2018-11-07T12:20:00.545Z,3.10
2018-11-07T12:21:05.531Z,2.40
2018-11-07T12:22:09.545Z,1.87
2018-11-07T12:23:14.008Z,4.17
2018-11-07T12:24:18.391Z,1.02
2018-11-07T12:25:23.091Z,3.83
2018-11-07T12:26:27.154Z,0.95
2018-11-07T12:27:31.444Z,1.70
2018-11-07T12:28:35.492Z,1.07
2018-11-07T12:29:39.634Z,1.20
2018-11-07T12:30:43.735Z,0.82
2018-11-07T12:31:47.876Z,0.88
2018-11-07T12:32:53.099Z,2.85
2018-11-07T12:33:57.375Z,3.15
2018-11-07T12:35:02.058Z,3.50
2018-11-07T12:36:06.363Z,4.97
2018-11-07T12:37:11.394Z,0.98
2018-11-07T12:38:15.805Z,2.17
2018-11-07T12:39:20.204Z,1.72
2018-11-07T12:40:24.412Z,1.55
2018-11-07T12:41:28.258Z,1.57
2018-11-07T12:42:32.317Z,1.27
2018-11-07T12:43:36.800Z,1.47
2018-11-07T12:44:41.600Z,2.08
2018-11-07T12:45:45.702Z,1.10
2018-11-07T12:46:49.912Z,2.33
2018-11-07T12:47:54.029Z,1.27
2018-11-07T12:48:58.043Z,2.10
2018-11-07T12:50:02.407Z,1.82
2018-11-07T12:51:06.513Z,1.12
2018-11-07T12:52:11.731Z,0.95
2018-11-07T12:53:15.847Z,1.40
2018-11-07T12:54:20.029Z,1.30
2018-11-07T12:55:24.906Z,1.92
2018-11-07T12:56:29.527Z,1.40
2018-11-07T12:57:33.744Z,0.95
2018-11-07T12:58:37.836Z,0.78
2018-11-07T12:59:42.514Z,1.30
2018-11-07T13:00:46.694Z,2.22
2018-11-07T13:01:51.621Z,2.12
2018-11-07T13:02:55.304Z,1.32
2018-11-07T13:03:59.204Z,2.52
2018-11-07T13:05:02.839Z,4.30
2018-11-07T13:06:06.448Z,1.92
2018-11-07T13:07:10.057Z,2.05
2018-11-07T13:08:13.654Z,2.00
2018-11-07T13:09:17.312Z,1.25
2018-11-07T13:10:21.938Z,2.72
2018-11-07T13:11:25.595Z,1.07
2018-11-07T13:12:29.227Z,1.25
2018-11-07T13:13:33.512Z,2.52
2018-11-07T13:14:38.103Z,2.35
2018-11-07T13:15:42.222Z,1.22
2018-11-07T13:16:46.014Z,2.45
2018-11-07T13:17:50.659Z,1.02
2018-11-07T13:18:54.374Z,1.15
2018-11-07T13:19:59.823Z,1.45
2018-11-07T13:21:03.878Z,1.17
2018-11-07T13:22:07.942Z,1.60
2018-11-07T13:23:12.435Z,0.70
2018-11-07T13:24:16.111Z,0.95
2018-11-07T13:25:20.041Z,0.80
2018-11-07T13:26:23.650Z,1.35
2018-11-07T13:27:27.223Z,1.40
2018-11-07T13:28:30.748Z,1.90
2018-11-07T13:29:34.233Z,2.37
2018-11-07T13:30:38.014Z,1.87
2018-11-07T13:31:41.804Z,5.80
2018-11-07T13:32:45.645Z,1.80
2018-11-07T13:33:49.163Z,2.52
2018-11-07T13:34:52.801Z,1.80
2018-11-07T13:35:56.327Z,5.20
2018-11-07T13:37:00.940Z,2.42
2018-11-07T13:38:05.013Z,1.42
2018-11-07T13:39:10.888Z,1.75
2018-11-07T13:40:16.319Z,0.88
2018-11-07T13:41:19.939Z,1.75
2018-11-07T13:42:23.467Z,1.12
2018-11-07T13:43:27.065Z,1.50
2018-11-07T13:44:30.985Z,0.90
2018-11-07T13:45:34.582Z,2.42
2018-11-07T13:46:38.191Z,1.10
2018-11-07T13:47:43.027Z,0.80
2018-11-07T13:48:46.710Z,1.62
2018-11-07T13:49:50.793Z,1.25
2018-11-07T13:50:54.409Z,3.45
2018-11-07T13:51:57.999Z,1.30
2018-11-07T13:53:01.658Z,0.95
2018-11-07T13:54:05.283Z,1.45
2018-11-07T13:55:10.063Z,1.67
2018-11-07T13:56:13.851Z,1.25
2018-11-07T13:57:17.487Z,1.45